createdAt,value
2024-04-22T00:00:48.390Z,0.62
2024-04-22T00:01:48.649Z,0.54
2024-04-22T00:02:48.897Z,0.52
2024-04-22T00:03:49.027Z,0.52
2024-04-22T00:04:49.342Z,0.55
2024-04-22T00:05:49.508Z,0.57
2024-04-22T00:06:49.739Z,0.60
2024-04-22T00:07:50.015Z,0.63
2024-04-22T00:08:50.246Z,0.70
2024-04-22T00:09:50.480Z,0.83
2024-04-22T00:10:50.803Z,1.01
2024-04-22T00:11:51.049Z,1.10
2024-04-22T00:12:51.229Z,1.17
2024-04-22T00:13:51.459Z,1.25
2024-04-22T00:14:51.763Z,1.40
2024-04-22T00:15:51.991Z,1.47
2024-04-22T00:16:52.376Z,1.63
2024-04-22T00:17:52.541Z,1.87
2024-04-22T00:18:52.797Z,1.79
2024-04-22T00:19:53.058Z,1.63
2024-04-22T00:20:53.291Z,1.20
2024-04-22T00:21:53.571Z,1.03
2024-04-22T00:22:53.803Z,1.09
2024-04-22T00:23:54.540Z,1.17
2024-04-22T00:24:54.383Z,1.34
2024-04-22T00:25:54.600Z,1.43
2024-04-22T00:26:54.824Z,1.58
2024-04-22T00:27:55.131Z,1.76
2024-04-22T00:28:55.398Z,1.91
2024-04-22T00:29:55.601Z,2.10
2024-04-22T00:30:55.914Z,2.17
2024-04-22T00:31:56.153Z,2.37
2024-04-22T00:32:56.356Z,2.68
2024-04-22T00:33:56.587Z,2.70
2024-04-22T00:34:56.756Z,2.78
2024-04-22T00:35:57.009Z,2.71
2024-04-22T00:36:57.244Z,2.88
2024-04-22T00:37:57.480Z,2.81
2024-04-22T00:38:57.641Z,2.76
2024-04-22T00:39:57.861Z,2.65
2024-04-22T00:40:58.102Z,2.73
2024-04-22T00:41:58.333Z,3.00
2024-04-22T00:42:58.536Z,2.99
2024-04-22T00:43:58.769Z,3.09
2024-04-22T00:44:59.054Z,3.22
2024-04-22T00:45:59.268Z,3.26
2024-04-22T00:46:59.598Z,3.61
2024-04-22T00:47:59.835Z,3.67
2024-04-22T00:49:00.039Z,3.45
2024-04-22T00:50:00.298Z,3.53
2024-04-22T00:51:00.531Z,3.29
2024-04-22T00:52:00.777Z,3.35
2024-04-22T00:53:00.988Z,3.39
2024-04-22T00:54:01.268Z,3.46
2024-04-22T00:55:01.485Z,3.48
2024-04-22T00:56:01.719Z,3.55
2024-04-22T00:57:01.923Z,3.87
2024-04-22T00:58:02.144Z,4.10
2024-04-22T00:59:02.410Z,4.14
2024-04-22T01:00:02.592Z,4.21
2024-04-22T01:01:02.872Z,4.51
2024-04-22T01:02:03.049Z,4.75
2024-04-22T01:03:03.305Z,4.99
2024-04-22T01:04:03.540Z,4.80
2024-04-22T01:05:03.777Z,4.78
2024-04-22T01:06:04.048Z,4.85
2024-04-22T01:07:04.404Z,4.93
2024-04-22T01:08:04.674Z,5.15
2024-04-22T01:09:04.798Z,5.03
2024-04-22T01:10:05.115Z,4.93
2024-04-22T01:11:05.246Z,4.96
2024-04-22T01:12:05.485Z,4.91
2024-04-22T01:13:05.705Z,4.99
2024-04-22T01:14:05.990Z,5.24
2024-04-22T01:15:06.144Z,5.08
2024-04-22T01:16:06.461Z,5.26
2024-04-22T01:17:06.690Z,5.19
2024-04-22T01:18:06.922Z,5.10
2024-04-22T01:19:07.222Z,5.15
2024-04-22T01:20:07.369Z,5.21
2024-04-22T01:21:07.650Z,5.35
2024-04-22T01:22:07.893Z,5.62
2024-04-22T01:23:08.041Z,6.02
2024-04-22T01:24:08.300Z,6.07
2024-04-22T01:25:08.543Z,5.64
2024-04-22T01:26:08.757Z,5.67
2024-04-22T01:27:09.019Z,5.57
2024-04-22T01:28:09.249Z,5.30
2024-04-22T01:29:09.432Z,5.30
2024-04-22T01:30:09.663Z,5.27
2024-04-22T01:31:09.929Z,5.56
2024-04-22T01:32:10.189Z,5.84
2024-04-22T01:33:10.487Z,5.85
2024-04-22T01:34:10.691Z,5.69
2024-04-22T01:35:10.892Z,5.79
2024-04-22T01:36:11.067Z,5.99
2024-04-22T01:37:11.389Z,6.21
2024-04-22T01:38:11.583Z,6.33
2024-04-22T01:39:11.807Z,6.68
2024-04-22T01:40:12.131Z,6.55
2024-04-22T01:41:12.355Z,6.61
2024-04-22T01:42:12.603Z,6.50
2024-04-22T01:43:12.886Z,6.58
2024-04-22T01:44:13.115Z,6.80
2024-04-22T01:45:13.403Z,7.07
2024-04-22T01:46:13.672Z,7.25
2024-04-22T01:47:13.939Z,7.41
2024-04-22T01:48:14.109Z,7.60
2024-04-22T01:49:14.395Z,8.10
2024-04-22T01:50:14.612Z,8.40
2024-04-22T01:51:14.851Z,8.30
2024-04-22T01:52:15.223Z,8.15
2024-04-22T01:53:15.366Z,8.19
2024-04-22T01:54:15.735Z,7.82
2024-04-22T01:55:15.914Z,8.16
2024-04-22T01:56:16.170Z,8.84
2024-04-22T01:57:16.435Z,9.34
2024-04-22T01:58:16.659Z,10.04
2024-04-22T01:59:16.885Z,10.07
2024-04-22T02:00:17.136Z,9.53
2024-04-22T02:01:17.493Z,9.41
2024-04-22T02:02:17.695Z,9.77
2024-04-22T02:03:17.908Z,9.86
2024-04-22T02:04:18.150Z,9.62
2024-04-22T02:05:18.327Z,8.69
2024-04-22T02:06:18.590Z,7.89
2024-04-22T02:07:18.896Z,8.05
2024-04-22T02:08:19.132Z,8.53
2024-04-22T02:09:19.305Z,8.00
2024-04-22T02:10:23.516Z,7.75
2024-04-22T02:11:19.624Z,7.77
2024-04-22T02:12:19.540Z,7.89
2024-04-22T02:13:19.542Z,7.89
2024-04-22T02:14:19.520Z,8.22
2024-04-22T02:15:19.531Z,7.54
2024-04-22T02:16:19.505Z,6.87
2024-04-22T02:17:19.492Z,6.02
2024-04-22T02:18:19.493Z,5.59
2024-04-22T02:19:19.483Z,5.15
2024-04-22T02:20:19.450Z,5.26
2024-04-22T02:21:19.430Z,5.01
2024-04-22T02:22:19.441Z,4.81
2024-04-22T02:23:19.429Z,4.66
2024-04-22T02:24:19.493Z,3.99
2024-04-22T02:25:19.573Z,3.58
2024-04-22T02:26:19.588Z,3.39
2024-04-22T02:27:19.661Z,3.07
2024-04-22T02:28:19.801Z,2.88
2024-04-22T02:29:19.760Z,2.53
2024-04-22T02:30:19.825Z,2.27
2024-04-22T02:31:19.935Z,2.24
2024-04-22T02:32:19.918Z,2.32
2024-04-22T02:33:20.083Z,2.31
2024-04-22T02:34:20.037Z,2.12
2024-04-22T02:35:20.098Z,2.01
2024-04-22T02:36:20.131Z,2.06
2024-04-22T02:37:20.209Z,2.07
2024-04-22T02:38:20.263Z,2.06
2024-04-22T02:39:20.317Z,2.12
2024-04-22T02:40:20.422Z,2.17
2024-04-22T02:41:20.455Z,2.10
2024-04-22T02:42:20.507Z,2.09
2024-04-22T02:43:20.589Z,2.08
2024-04-22T02:44:20.590Z,1.92
2024-04-22T02:45:20.644Z,1.96
2024-04-22T02:46:20.864Z,2.09
2024-04-22T02:47:21.049Z,2.05
2024-04-22T02:48:21.328Z,1.93
2024-04-22T02:49:21.535Z,2.08
2024-04-22T02:50:21.720Z,2.13
2024-04-22T02:51:21.920Z,2.19
2024-04-22T02:52:22.196Z,2.15
2024-04-22T02:53:22.382Z,2.23
2024-04-22T02:54:22.613Z,2.31
2024-04-22T02:55:22.830Z,2.46
2024-04-22T02:56:23.050Z,2.45
2024-04-22T02:57:23.272Z,2.43
2024-04-22T02:58:23.565Z,2.39
2024-04-22T02:59:23.689Z,2.47
2024-04-22T03:00:23.896Z,2.44
2024-04-22T03:01:24.137Z,2.51
2024-04-22T03:02:24.466Z,2.67
2024-04-22T03:03:24.631Z,2.96
2024-04-22T03:04:24.874Z,3.21
2024-04-22T03:05:25.100Z,3.23
2024-04-22T03:06:25.276Z,3.33
2024-04-22T03:07:25.572Z,3.31
2024-04-22T03:08:25.786Z,3.25
2024-04-22T03:09:25.926Z,3.54
2024-04-22T03:10:26.218Z,3.58
2024-04-22T03:11:26.491Z,3.78
2024-04-22T03:12:26.634Z,3.38
2024-04-22T03:13:26.987Z,3.32
2024-04-22T03:14:27.140Z,3.31
2024-04-22T03:15:27.384Z,3.64
2024-04-22T03:16:27.699Z,3.97
2024-04-22T03:17:27.972Z,4.17
2024-04-22T03:18:28.136Z,4.41
2024-04-22T03:19:28.389Z,4.38
2024-04-22T03:20:28.627Z,4.22
2024-04-22T03:21:28.854Z,4.25
2024-04-22T03:22:29.141Z,4.01
2024-04-22T03:23:29.302Z,4.10
2024-04-22T03:24:29.507Z,3.92
2024-04-22T03:25:29.757Z,3.66
2024-04-22T03:26:29.959Z,3.52
2024-04-22T03:27:30.208Z,3.77
2024-04-22T03:28:30.448Z,3.88
2024-04-22T03:29:30.643Z,3.91
2024-04-22T03:30:30.877Z,3.95
2024-04-22T03:31:31.149Z,4.33
2024-04-22T03:32:31.426Z,4.63
2024-04-22T03:33:31.576Z,4.88
2024-04-22T03:34:31.833Z,4.77
2024-04-22T03:35:32.039Z,4.83
2024-04-22T03:36:32.270Z,4.74
2024-04-22T03:37:32.538Z,4.62
2024-04-22T03:38:32.727Z,4.76
2024-04-22T03:39:32.960Z,4.80
2024-04-22T03:40:33.210Z,4.97
2024-04-22T03:41:34.088Z,4.96
2024-04-22T03:42:33.457Z,5.09
2024-04-22T03:43:33.533Z,5.32
2024-04-22T03:44:33.566Z,5.42
2024-04-22T03:45:33.588Z,5.46
2024-04-22T03:46:33.640Z,5.84
2024-04-22T03:47:33.749Z,5.62
2024-04-22T03:48:33.707Z,5.96
2024-04-22T03:49:33.755Z,5.67
2024-04-22T03:50:33.780Z,5.19
2024-04-22T03:51:34.577Z,4.98
2024-04-22T03:52:33.891Z,5.15
2024-04-22T03:53:33.876Z,5.08
2024-04-22T03:54:33.924Z,5.14
2024-04-22T03:55:33.958Z,5.53
2024-04-22T03:56:33.961Z,5.75
2024-04-22T03:57:34.022Z,5.83
2024-04-22T03:58:34.099Z,5.69
2024-04-22T03:59:34.062Z,5.64
2024-04-22T04:00:34.124Z,5.48
2024-04-22T04:01:34.191Z,5.81
2024-04-22T04:02:34.176Z,5.46
2024-04-22T04:03:34.278Z,5.57
2024-04-22T04:04:34.322Z,5.74
2024-04-22T04:05:34.320Z,5.62
2024-04-22T04:06:34.300Z,5.45
2024-04-22T04:07:34.396Z,5.64
2024-04-22T04:08:34.375Z,5.48
2024-04-22T04:09:34.401Z,5.44
2024-04-22T04:10:34.499Z,4.99
2024-04-22T04:11:34.519Z,4.59
2024-04-22T04:12:34.518Z,4.48
2024-04-22T04:13:34.575Z,4.47
2024-04-22T04:14:34.588Z,4.46
2024-04-22T04:15:34.634Z,4.35
2024-04-22T04:16:34.752Z,4.37
2024-04-22T04:17:34.819Z,4.70
2024-04-22T04:18:34.798Z,4.85
2024-04-22T04:19:34.892Z,5.08
2024-04-22T04:20:34.896Z,5.13
2024-04-22T04:21:34.931Z,4.98
2024-04-22T04:22:34.995Z,4.67
2024-04-22T04:23:35.018Z,4.87
2024-04-22T04:24:35.054Z,5.17
2024-04-22T04:25:35.145Z,5.24
2024-04-22T04:26:35.156Z,5.34
2024-04-22T04:27:35.167Z,5.20
2024-04-22T04:28:35.274Z,5.41
2024-04-22T04:29:35.205Z,5.54
2024-04-22T04:30:35.244Z,5.73
2024-04-22T04:31:35.348Z,5.84
2024-04-22T04:32:35.407Z,5.99
2024-04-22T04:33:35.326Z,5.65
2024-04-22T04:34:35.387Z,5.34
2024-04-22T04:35:35.365Z,5.56
2024-04-22T04:36:35.390Z,5.41
2024-04-22T04:37:35.444Z,5.15
2024-04-22T04:38:35.447Z,4.74
2024-04-22T04:39:35.472Z,4.66
2024-04-22T04:40:35.558Z,4.71
2024-04-22T04:41:35.543Z,4.83
2024-04-22T04:42:35.559Z,4.84
2024-04-22T04:43:35.617Z,4.83
2024-04-22T04:44:35.598Z,4.87
2024-04-22T04:45:42.895Z,0.50
2024-04-22T04:46:42.987Z,0.50
2024-04-22T04:47:43.263Z,0.50
2024-04-22T04:48:43.391Z,0.50
2024-04-22T04:49:43.750Z,0.50
2024-04-22T04:50:43.818Z,0.52
2024-04-22T04:51:44.044Z,0.51
2024-04-22T04:52:44.305Z,0.50
2024-04-22T04:53:44.506Z,0.50
2024-04-22T04:54:44.752Z,0.51
2024-04-22T04:55:45.024Z,0.50
2024-04-22T04:56:45.175Z,0.50
2024-04-22T04:57:45.390Z,0.51
2024-04-22T04:58:45.658Z,0.51
2024-04-22T04:59:45.861Z,0.51
2024-04-22T05:00:46.194Z,0.51
2024-04-22T05:01:46.487Z,0.50
2024-04-22T05:02:46.595Z,0.52
2024-04-22T05:03:46.802Z,0.53
2024-04-22T05:04:47.091Z,0.52
2024-04-22T05:05:47.260Z,0.54
2024-04-22T05:06:47.487Z,0.56
2024-04-22T05:07:47.823Z,0.53
2024-04-22T05:08:48.017Z,0.51
2024-04-22T05:09:48.254Z,0.50
2024-04-22T05:10:48.625Z,0.50
2024-04-22T05:11:48.792Z,0.50
2024-04-22T05:12:48.970Z,0.50
2024-04-22T05:13:49.238Z,0.51
2024-04-22T05:14:49.424Z,0.50
2024-04-22T05:15:49.615Z,0.50
2024-04-22T05:16:49.874Z,0.51
2024-04-22T05:17:50.080Z,0.52
2024-04-22T05:18:50.308Z,0.52
2024-04-22T05:19:50.515Z,0.50
2024-04-22T05:20:50.672Z,0.50
2024-04-22T05:21:50.894Z,0.51
2024-04-22T05:22:51.103Z,0.50
2024-04-22T05:23:51.270Z,0.50
2024-04-22T05:24:51.501Z,0.52
2024-04-22T05:25:51.737Z,0.52
2024-04-22T05:26:51.881Z,0.51
2024-04-22T05:27:52.066Z,0.51
2024-04-22T05:28:52.399Z,0.50
2024-04-22T05:29:52.548Z,0.51
2024-04-22T05:30:52.746Z,0.50
2024-04-22T05:31:52.939Z,0.51
2024-04-22T05:32:53.144Z,0.53
2024-04-22T05:33:53.355Z,0.53
2024-04-22T05:34:53.535Z,0.54
2024-04-22T05:35:53.836Z,0.53
2024-04-22T05:36:54.062Z,0.60
2024-04-22T05:37:54.229Z,0.71
2024-04-22T05:38:54.406Z,0.86
2024-04-22T05:39:54.649Z,1.04
2024-04-22T05:40:54.878Z,1.21
2024-04-22T05:41:55.034Z,1.47
2024-04-22T05:42:55.183Z,1.70
2024-04-22T05:43:55.360Z,2.00
2024-04-22T05:44:55.603Z,2.23
2024-04-22T05:45:55.802Z,2.16
2024-04-22T05:46:56.011Z,1.85
2024-04-22T05:47:56.307Z,1.48
2024-04-22T05:48:56.462Z,1.32
2024-04-22T05:49:56.708Z,1.20
2024-04-22T05:50:56.810Z,1.11
2024-04-22T05:51:57.037Z,1.08
2024-04-22T05:52:57.271Z,1.07
2024-04-22T05:53:57.457Z,1.16
2024-04-22T05:54:57.701Z,1.23
2024-04-22T05:55:57.900Z,1.19
2024-04-22T05:56:58.089Z,1.11
2024-04-22T05:57:58.336Z,1.07
2024-04-22T05:58:58.517Z,1.06
2024-04-22T05:59:58.775Z,1.05
2024-04-22T06:00:58.985Z,1.03
2024-04-22T06:01:59.304Z,1.02
2024-04-22T06:02:59.469Z,0.99
2024-04-22T06:03:59.678Z,0.97
2024-04-22T06:05:00.004Z,0.99
2024-04-22T06:06:00.236Z,1.09
2024-04-22T06:07:00.423Z,1.22
2024-04-22T06:08:00.649Z,1.37
2024-04-22T06:09:00.816Z,1.60
2024-04-22T06:10:01.091Z,1.73
2024-04-22T06:11:01.346Z,1.96
2024-04-22T06:12:10.881Z,2.09
2024-04-22T06:13:02.619Z,2.10
2024-04-22T06:14:01.496Z,2.14
2024-04-22T06:15:01.524Z,2.23
2024-04-22T06:16:01.610Z,2.37
2024-04-22T06:17:01.618Z,2.65
2024-04-22T06:18:01.541Z,2.69
2024-04-22T06:19:01.498Z,2.60
2024-04-22T06:20:01.522Z,2.36
2024-04-22T06:21:01.547Z,2.12
2024-04-22T06:22:01.565Z,1.97
2024-04-22T06:23:01.614Z,1.85
2024-04-22T06:24:01.618Z,1.86
2024-04-22T06:25:01.640Z,1.79
2024-04-22T06:26:01.681Z,1.76
2024-04-22T06:27:01.667Z,1.78
2024-04-22T06:28:01.650Z,1.97
2024-04-22T06:29:01.664Z,2.19
2024-04-22T06:30:01.720Z,2.24
2024-04-22T06:31:01.778Z,2.10
2024-04-22T06:32:01.816Z,1.97
2024-04-22T06:33:01.837Z,1.84
2024-04-22T06:34:01.806Z,1.73
2024-04-22T06:35:01.780Z,1.58
2024-04-22T06:36:01.820Z,1.55
2024-04-22T06:37:01.849Z,1.72
2024-04-22T06:38:01.831Z,1.90
2024-04-22T06:39:01.871Z,2.21
2024-04-22T06:40:01.914Z,2.41
2024-04-22T06:41:01.892Z,2.40
2024-04-22T06:42:01.904Z,2.30
2024-04-22T06:43:23.953Z,2.00
2024-04-22T06:44:01.963Z,2.01
2024-04-22T06:45:01.978Z,2.01
2024-04-22T06:46:01.999Z,1.83
2024-04-22T06:47:02.140Z,1.65
2024-04-22T06:48:02.483Z,1.61
2024-04-22T06:49:02.116Z,1.53
2024-04-22T06:50:02.101Z,1.46
2024-04-22T06:51:02.118Z,1.39
2024-04-22T06:52:02.205Z,1.30
2024-04-22T06:53:02.140Z,1.27
2024-04-22T06:54:02.248Z,1.26
2024-04-22T07:20:13.916Z,1.33
2024-04-22T07:20:49.960Z,1.42
2024-04-22T07:21:49.185Z,2.45
2024-04-22T07:22:49.944Z,5.60
2024-04-22T07:23:49.225Z,14.60
2024-04-22T07:24:57.288Z,41.35
2024-04-22T07:25:50.943Z,1.51
2024-04-22T07:26:49.332Z,2.14
2024-04-22T07:27:49.139Z,3.35
2024-04-22T07:28:49.268Z,5.51
2024-04-22T07:29:49.139Z,9.12
2024-04-22T07:30:49.141Z,7.46
2024-04-22T07:31:49.188Z,5.86
2024-04-22T07:32:49.239Z,4.72
2024-04-22T07:33:49.194Z,3.80
2024-04-22T07:34:49.176Z,3.63
2024-04-22T07:35:49.191Z,3.76
2024-04-22T07:36:49.133Z,3.05
2024-04-22T07:37:49.268Z,2.83
2024-04-22T07:38:49.135Z,2.54
2024-04-22T07:39:51.859Z,2.22
2024-04-22T07:40:49.292Z,1.91
2024-04-22T07:41:49.203Z,1.75
2024-04-22T07:42:49.103Z,1.64
2024-04-22T07:43:49.119Z,1.56
2024-04-22T07:44:49.136Z,1.41
2024-04-22T07:45:49.126Z,1.36
2024-04-22T07:46:49.138Z,1.28
2024-04-22T07:47:49.153Z,1.21
2024-04-22T07:48:50.062Z,1.21
2024-04-22T07:49:49.036Z,1.17
2024-04-22T07:50:48.988Z,1.14
2024-04-22T07:51:49.052Z,1.11
2024-04-22T07:52:48.993Z,1.08
2024-04-22T07:53:48.941Z,1.12
2024-04-22T07:54:48.935Z,1.08
2024-04-22T07:55:48.988Z,0.90
2024-04-22T07:56:50.186Z,0.80
2024-04-22T07:57:48.963Z,0.70
2024-04-22T07:58:49.078Z,0.65
2024-04-22T07:59:49.110Z,0.64
2024-04-22T08:00:49.142Z,0.61
2024-04-22T08:01:49.305Z,0.59
2024-04-22T08:02:49.360Z,0.59
2024-04-22T08:03:49.524Z,0.56
2024-04-22T08:04:49.712Z,0.51
2024-04-22T08:05:49.908Z,0.51
2024-04-22T08:06:50.074Z,0.50
2024-04-22T08:15:12.716Z,0.50
2024-04-22T08:15:48.748Z,0.52
2024-04-22T08:16:47.856Z,0.57
2024-04-22T08:17:46.277Z,0.56
2024-04-22T08:19:13.531Z,0.74
2024-04-22T08:19:47.176Z,0.52
2024-04-22T08:20:48.047Z,0.62
2024-04-22T08:21:47.353Z,0.82
2024-04-22T08:25:19.321Z,0.50
2024-04-22T08:25:57.007Z,0.52
2024-04-22T08:26:54.925Z,0.56
2024-04-22T08:27:55.256Z,0.73
2024-04-22T08:29:22.012Z,1.04
2024-04-22T08:29:55.218Z,0.52
2024-04-22T08:30:55.286Z,0.60
2024-04-22T08:31:54.998Z,0.78
2024-04-22T08:32:55.044Z,1.09
2024-04-22T08:33:55.021Z,1.58
2024-04-22T08:34:54.972Z,1.69
2024-04-22T08:35:54.969Z,1.48
2024-04-22T08:36:55.467Z,1.51
2024-04-22T08:37:54.937Z,1.41
2024-04-22T08:38:54.917Z,1.41
2024-04-22T08:39:54.933Z,1.47
2024-04-22T08:40:54.936Z,1.56
2024-04-22T08:41:54.884Z,1.47
2024-04-22T08:42:54.862Z,1.44
2024-04-22T08:43:54.874Z,1.52
2024-04-22T08:44:54.841Z,1.60
2024-04-22T08:45:54.834Z,1.47
2024-04-22T08:46:55.620Z,1.31
2024-04-22T08:47:55.002Z,1.20
2024-04-22T08:48:54.783Z,1.12
2024-04-22T08:49:54.788Z,1.05
2024-04-22T08:50:54.755Z,1.05
2024-04-22T08:51:54.735Z,1.00
2024-04-22T08:52:56.759Z,0.99
2024-04-22T08:53:54.708Z,1.01
2024-04-22T08:54:54.740Z,1.04
2024-04-22T08:55:54.797Z,1.17
2024-04-22T08:56:54.823Z,1.15
2024-04-22T08:57:54.849Z,1.18
2024-04-22T08:58:54.898Z,1.27
2024-04-22T08:59:54.875Z,1.43
2024-04-22T09:00:54.998Z,1.58
2024-04-22T09:01:55.521Z,1.49
2024-04-22T09:02:54.978Z,1.36
2024-04-22T09:03:55.489Z,1.24
2024-04-22T09:04:55.200Z,1.24
2024-04-22T09:05:55.095Z,1.25
2024-04-22T09:06:55.059Z,1.27
2024-04-22T09:07:55.258Z,1.48
2024-04-22T09:08:55.081Z,1.70
2024-04-22T09:10:11.138Z,1.78
2024-04-22T09:11:27.148Z,1.74
2024-04-22T09:12:08.406Z,1.68
2024-04-22T09:12:56.018Z,1.67
2024-04-22T09:13:55.158Z,1.52
2024-04-22T09:14:55.039Z,1.38
2024-04-22T09:15:55.113Z,1.26
2024-04-22T09:16:54.981Z,1.22
2024-04-22T09:17:55.074Z,1.11
2024-04-22T09:18:54.945Z,1.06
2024-04-22T09:19:54.994Z,1.01
2024-04-22T09:20:55.092Z,0.95
2024-04-22T09:21:54.833Z,0.92
2024-04-22T09:22:54.889Z,0.87
2024-04-22T09:23:56.622Z,0.85
2024-04-22T09:24:54.692Z,0.85
2024-04-22T09:25:54.695Z,0.82
2024-04-22T09:26:55.724Z,0.82
2024-04-22T09:27:54.599Z,0.84
2024-04-22T09:28:54.642Z,0.86
2024-04-22T09:29:54.562Z,0.87
2024-04-22T09:30:54.525Z,0.96
2024-04-22T09:31:54.743Z,0.95
2024-04-22T09:32:54.778Z,0.89
2024-04-22T09:33:54.732Z,0.90
2024-04-22T09:34:54.599Z,0.87
2024-04-22T09:35:54.576Z,0.84
2024-04-22T09:36:54.406Z,0.82
2024-04-22T09:37:54.402Z,0.81
2024-04-22T09:38:54.399Z,0.78
2024-04-22T09:39:54.383Z,0.71
2024-04-22T09:40:54.405Z,0.77
2024-04-22T09:41:54.437Z,0.77
2024-04-22T09:42:54.433Z,0.73
2024-04-22T09:43:57.888Z,0.73
2024-04-22T09:44:54.463Z,0.73
2024-04-22T09:45:54.610Z,0.74
2024-04-22T09:46:54.456Z,0.74
2024-04-22T09:47:54.474Z,0.74
2024-04-22T09:48:55.178Z,0.73
2024-04-22T09:49:54.561Z,0.74
2024-04-22T09:50:54.278Z,0.75
2024-04-22T09:51:54.226Z,0.76
2024-04-22T09:52:54.233Z,0.75
2024-04-22T09:53:54.398Z,0.70
2024-04-22T09:54:54.197Z,0.69
2024-04-22T09:55:54.161Z,0.67
2024-04-22T09:56:54.086Z,0.63
2024-04-22T09:57:54.067Z,0.60
2024-04-22T09:58:54.126Z,0.59
2024-04-22T09:59:54.101Z,0.59
2024-04-22T10:00:54.071Z,0.59
2024-04-22T10:01:54.132Z,0.60
2024-04-22T10:02:54.225Z,0.59
2024-04-22T10:03:54.137Z,0.60
2024-04-22T10:04:54.210Z,0.62
2024-04-22T10:05:54.387Z,0.62
2024-04-22T10:06:53.985Z,0.61
2024-04-22T10:07:54.061Z,0.60
2024-04-22T10:08:53.995Z,0.59
2024-04-22T10:09:53.856Z,0.60
2024-04-22T10:10:54.664Z,0.59
2024-04-22T10:11:53.984Z,0.59
2024-04-22T10:12:53.779Z,0.59
2024-04-22T10:13:53.729Z,0.60
2024-04-22T10:14:53.716Z,0.60
2024-04-22T10:15:53.822Z,0.65
2024-04-22T10:16:54.094Z,0.70
2024-04-22T10:17:54.363Z,0.73
2024-04-22T10:18:54.837Z,0.73
2024-04-22T10:19:55.093Z,0.74
2024-04-22T10:20:55.002Z,0.71
2024-04-22T10:21:55.234Z,0.69
2024-04-22T10:22:55.435Z,0.65
2024-04-22T10:23:56.501Z,0.64
2024-04-22T10:24:55.689Z,0.58
2024-04-22T10:25:55.700Z,0.57
2024-04-22T10:27:04.846Z,0.55
2024-04-22T10:27:56.620Z,0.55
2024-04-22T10:28:55.619Z,0.56
2024-04-22T10:29:55.735Z,0.56
2024-04-22T10:30:55.575Z,0.58
2024-04-22T10:31:56.575Z,0.58
2024-04-22T10:32:55.586Z,0.57
2024-04-22T10:33:55.561Z,0.57
2024-04-22T10:34:55.531Z,0.60
2024-04-22T10:35:55.443Z,0.56
2024-04-22T10:36:57.331Z,0.61
2024-04-22T10:37:55.454Z,0.61
2024-04-22T10:38:55.363Z,0.60
2024-04-22T10:39:55.347Z,0.62
2024-04-22T10:40:55.382Z,0.62
2024-04-22T10:41:55.375Z,0.59
2024-04-22T10:42:55.313Z,0.58
2024-04-22T10:43:55.337Z,0.54
2024-04-22T10:44:55.258Z,0.53
2024-04-22T10:45:55.235Z,0.52
2024-04-22T10:46:55.256Z,0.53
2024-04-22T10:48:05.276Z,0.54
2024-04-22T10:48:56.210Z,0.54
2024-04-22T10:49:55.247Z,0.54
2024-04-22T10:50:55.098Z,0.55
2024-04-22T10:51:56.072Z,0.56
2024-04-22T10:52:55.080Z,0.56
2024-04-22T10:53:55.207Z,0.62
2024-04-22T10:54:55.017Z,0.60
2024-04-22T10:55:54.993Z,0.59
2024-04-22T10:56:54.949Z,0.57
2024-04-22T10:57:54.919Z,0.57
2024-04-22T10:58:54.962Z,0.56
2024-04-22T10:59:54.892Z,0.54
2024-04-22T11:00:54.913Z,0.53
2024-04-22T11:01:54.910Z,0.56
2024-04-22T11:02:55.897Z,0.56
2024-04-22T11:03:54.838Z,0.57
2024-04-22T11:04:55.057Z,0.58
2024-04-22T11:05:54.792Z,0.60
2024-04-22T11:06:54.779Z,0.64
2024-04-22T11:07:54.807Z,0.68
2024-04-22T11:08:54.738Z,0.68
2024-04-22T11:09:54.695Z,0.74
2024-04-22T11:10:54.756Z,0.75
2024-04-22T11:11:54.767Z,0.78
2024-04-22T11:12:54.587Z,0.85
2024-04-22T11:13:54.520Z,0.92
2024-04-22T11:14:54.497Z,0.98
2024-04-22T11:15:54.513Z,1.00
2024-04-22T11:16:54.479Z,1.02
2024-04-22T11:17:54.462Z,1.16
2024-04-22T11:18:54.509Z,1.28
2024-04-22T11:19:54.734Z,1.36
2024-04-22T11:20:55.033Z,1.46
2024-04-22T11:21:55.061Z,1.54
2024-04-22T11:22:55.412Z,1.65
2024-04-22T11:23:55.673Z,1.82
2024-04-22T11:24:55.833Z,1.85
2024-04-22T11:25:56.073Z,1.67
2024-04-22T11:26:56.291Z,1.58
2024-04-22T11:27:56.509Z,1.42
2024-04-22T11:28:56.778Z,1.38
2024-04-22T11:29:57.039Z,1.46
2024-04-22T11:30:57.272Z,1.43
2024-04-22T11:31:57.515Z,1.44
2024-04-22T11:32:57.729Z,1.36
2024-04-22T11:33:57.873Z,1.32
2024-04-22T11:34:58.097Z,1.31
2024-04-22T11:35:58.349Z,1.25
2024-04-22T11:36:58.568Z,1.28
2024-04-22T11:37:58.823Z,1.38
2024-04-22T11:38:59.054Z,1.45
2024-04-22T11:39:59.259Z,1.36
2024-04-22T11:40:59.541Z,1.33
2024-04-22T11:41:59.707Z,1.28
2024-04-22T11:42:59.956Z,1.20
2024-04-22T11:44:00.119Z,1.26
2024-04-22T11:45:02.839Z,1.29
2024-04-22T11:46:00.301Z,1.29
2024-04-22T11:47:00.387Z,1.29
2024-04-22T11:48:00.343Z,1.35
2024-04-22T11:49:00.187Z,1.71
2024-04-22T11:50:00.171Z,2.03
2024-04-22T11:51:00.089Z,2.19
2024-04-22T11:52:00.057Z,2.04
2024-04-22T11:53:05.625Z,1.89
2024-04-22T11:54:00.972Z,1.89
2024-04-22T11:54:59.929Z,1.89
2024-04-22T11:55:59.908Z,1.93
2024-04-22T11:56:59.856Z,2.07
2024-04-22T11:57:59.787Z,2.02
2024-04-22T11:58:59.784Z,1.71
2024-04-22T11:59:59.732Z,1.54
2024-04-22T12:00:59.770Z,1.49
2024-04-22T12:01:59.690Z,1.95
2024-04-22T12:03:01.480Z,2.69
2024-04-22T12:03:59.707Z,2.77
2024-04-22T12:04:59.981Z,2.65
2024-04-22T12:05:59.693Z,2.47
2024-04-22T12:06:59.630Z,2.24
2024-04-22T12:07:59.659Z,1.97
2024-04-22T12:09:03.036Z,1.75
2024-04-22T12:10:01.521Z,1.72
2024-04-22T12:11:00.588Z,1.50
2024-04-22T12:11:59.618Z,1.25
2024-04-22T12:12:59.606Z,1.11
2024-04-22T12:13:59.551Z,1.05
2024-04-22T12:15:00.997Z,0.96
2024-04-22T12:15:59.626Z,0.99
2024-04-22T12:16:59.531Z,0.90
2024-04-22T12:17:59.495Z,0.88
2024-04-22T12:18:59.599Z,0.87
2024-04-22T12:19:59.387Z,0.81
2024-04-22T12:21:00.481Z,0.75
2024-04-22T12:21:59.555Z,0.75
2024-04-22T12:22:59.641Z,0.75
2024-04-22T12:23:59.643Z,0.74
2024-04-22T12:24:59.618Z,0.73
2024-04-22T12:25:59.682Z,0.74
2024-04-22T12:27:01.548Z,0.71
2024-04-22T12:28:09.631Z,0.72
2024-04-22T12:29:00.919Z,0.72
2024-04-22T12:29:59.846Z,0.74
2024-04-22T12:30:59.804Z,0.79
2024-04-22T12:31:59.785Z,0.85
2024-04-22T12:32:59.898Z,0.95
2024-04-22T12:34:06.797Z,1.28
2024-04-22T12:35:00.772Z,1.30
2024-04-22T12:35:59.629Z,1.41
2024-04-22T12:36:59.587Z,1.59
2024-04-22T12:37:59.727Z,1.69
2024-04-22T12:38:59.537Z,1.73
2024-04-22T12:39:59.482Z,1.59
2024-04-22T12:40:59.492Z,1.51
2024-04-22T12:41:59.444Z,1.47
2024-04-22T12:43:00.194Z,1.40
2024-04-22T12:44:02.841Z,1.28
2024-04-22T12:44:59.357Z,1.28
2024-04-22T12:45:59.342Z,1.29
2024-04-22T12:46:59.348Z,1.36
2024-04-22T12:47:59.412Z,1.73
2024-04-22T12:48:59.263Z,2.41
2024-04-22T12:49:59.281Z,3.18
2024-04-22T12:50:59.843Z,3.13
2024-04-22T12:51:59.111Z,3.22
2024-04-22T12:52:59.112Z,3.63
2024-04-22T12:53:59.059Z,4.26
2024-04-22T12:54:59.984Z,5.58
2024-04-22T12:55:58.991Z,7.08
2024-04-22T12:56:58.884Z,7.32
2024-04-22T12:57:58.836Z,8.18
2024-04-22T12:58:59.515Z,8.29
2024-04-22T12:59:58.940Z,8.20
2024-04-22T13:00:58.847Z,8.34
2024-04-22T13:01:59.290Z,7.09
2024-04-22T13:02:59.444Z,13.31
2024-04-22T13:03:59.663Z,22.89
2024-04-22T13:04:59.903Z,20.80
2024-04-22T13:06:00.480Z,22.40
2024-04-22T13:07:01.187Z,45.99
2024-04-22T13:08:00.241Z,52.85
2024-04-22T13:09:02.475Z,57.86
2024-04-22T13:10:00.466Z,66.18
2024-04-22T13:11:00.498Z,93.10
2024-04-22T13:12:00.294Z,133.54
2024-04-22T13:13:02.223Z,190.74
2024-04-22T13:14:00.472Z,219.00
2024-04-22T13:15:00.246Z,228.22
2024-04-22T13:16:00.085Z,270.65
2024-04-22T13:17:00.024Z,316.97
2024-04-22T13:18:00.039Z,352.93
2024-04-22T13:19:01.263Z,252.08
2024-04-22T13:20:00.048Z,183.40
2024-04-22T13:21:00.056Z,132.62
2024-04-22T13:22:00.069Z,112.93
2024-04-22T13:23:00.052Z,93.50
2024-04-22T13:24:00.312Z,85.86
2024-04-22T13:25:03.185Z,85.04
2024-04-22T13:26:00.795Z,85.85
2024-04-22T13:27:00.508Z,92.33
2024-04-22T13:28:00.391Z,118.81
2024-04-22T13:29:00.346Z,180.84
2024-04-22T13:30:00.413Z,286.35
2024-04-22T13:31:00.202Z,304.96
2024-04-22T13:32:00.213Z,345.25
2024-04-22T13:33:00.214Z,300.83
2024-04-22T13:34:00.036Z,271.04
2024-04-22T13:35:00.036Z,238.51
2024-04-22T13:35:59.995Z,190.40
2024-04-22T13:36:59.875Z,144.39
2024-04-22T13:37:59.899Z,114.57
2024-04-22T13:38:59.878Z,107.31
2024-04-22T13:40:00.219Z,107.64
2024-04-22T13:41:00.359Z,113.81
2024-04-22T13:42:00.595Z,156.18
2024-04-22T13:43:00.935Z,186.16
2024-04-22T13:44:01.190Z,229.35
2024-04-22T13:45:01.345Z,307.54
2024-04-22T13:46:01.555Z,1000.00
2024-04-22T13:47:01.834Z,1000.00
2024-04-22T13:48:02.070Z,1000.00
2024-04-22T13:49:02.199Z,1000.00
2024-04-22T13:50:02.422Z,1000.00
2024-04-22T13:51:02.629Z,1000.00